createdAt,value
2023-05-15T05:00:51.659Z,99724.88
2023-05-15T05:03:39.320Z,99714.97
2023-05-15T05:06:29.162Z,99717.44
2023-05-15T05:09:06.072Z,99710.94
2023-05-15T05:14:17.247Z,99707.50
2023-05-15T05:16:47.153Z,99712.53
2023-05-15T05:19:13.942Z,99714.03
2023-05-15T05:21:40.693Z,99717.19
2023-05-15T05:24:08.163Z,99720.38
2023-05-15T05:26:34.712Z,99721.75
2023-05-15T05:29:02.380Z,99728.50
2023-05-15T05:31:29.039Z,99734.41
2023-05-15T05:33:56.067Z,99729.56
2023-05-15T05:36:23.052Z,99729.06
2023-05-15T05:38:49.578Z,99720.66
2023-05-15T05:41:16.572Z,99725.25
2023-05-15T05:43:44.031Z,99717.63
2023-05-15T05:46:11.101Z,99724.81
2023-05-15T05:48:38.127Z,99720.47
2023-05-15T05:51:04.853Z,99716.13
2023-05-15T05:53:31.858Z,99715.22
2023-05-15T05:55:58.514Z,99717.72
2023-05-15T05:58:26.538Z,99719.31
2023-05-15T06:00:54.583Z,99712.84
2023-05-15T06:03:22.798Z,99719.72
2023-05-15T06:05:50.526Z,99719.56
2023-05-15T06:08:17.144Z,99723.03
2023-05-15T06:10:44.149Z,99713.06
2023-05-15T06:13:11.559Z,99715.44
2023-05-15T06:15:39.133Z,99720.75
2023-05-15T06:18:06.075Z,99707.66
2023-05-15T06:20:33.719Z,99711.81
2023-05-15T06:23:01.268Z,99719.44
2023-05-15T06:25:28.017Z,99715.94
2023-05-15T06:27:56.165Z,99718.34
2023-05-15T06:30:22.919Z,99711.66
2023-05-15T06:32:50.127Z,99703.47
2023-05-15T06:35:16.829Z,99704.03
2023-05-15T06:37:43.785Z,99703.03
2023-05-15T06:40:11.631Z,99698.63
2023-05-15T06:42:38.212Z,99701.44
2023-05-15T06:45:05.887Z,99701.47
2023-05-15T06:47:32.542Z,99704.47
2023-05-15T06:49:59.204Z,99699.09
2023-05-15T06:52:26.836Z,99699.69
2023-05-15T06:54:53.458Z,99701.09
2023-05-15T06:57:20.963Z,99700.81
2023-05-15T06:59:47.519Z,99706.31
2023-05-15T07:02:15.073Z,99704.16
2023-05-15T07:04:41.732Z,99708.69
2023-05-15T07:07:08.945Z,99714.59
2023-05-15T07:09:35.567Z,99704.31
2023-05-15T07:12:03.665Z,99709.81
2023-05-15T07:14:32.345Z,99709.88
2023-05-15T07:16:58.963Z,99706.81
2023-05-15T07:19:26.165Z,99703.03
2023-05-15T07:21:52.893Z,99708.22
2023-05-15T07:24:19.959Z,99698.47
2023-05-15T07:26:58.077Z,99703.34
2023-05-15T07:29:26.177Z,99700.75
2023-05-15T07:31:53.793Z,99696.59
2023-05-15T07:34:20.731Z,99695.03
2023-05-15T07:36:48.309Z,99694.97
2023-05-15T07:39:14.964Z,99695.53
2023-05-15T07:41:42.032Z,99697.09
2023-05-15T07:44:08.685Z,99692.41
2023-05-15T07:46:35.512Z,99700.03
2023-05-15T07:49:03.167Z,99695.19
2023-05-15T07:51:29.867Z,99689.22
2023-05-15T07:53:56.445Z,99692.03
2023-05-15T07:56:23.886Z,99684.34
2023-05-15T07:58:50.595Z,99688.47
2023-05-15T08:01:18.029Z,99674.94
2023-05-15T08:03:45.029Z,99681.75
2023-05-15T08:06:11.657Z,99680.94
2023-05-15T08:08:38.924Z,99680.41
2023-05-15T08:11:05.875Z,99681.84
2023-05-15T08:13:32.452Z,99686.41
2023-05-15T08:15:59.407Z,99684.66
2023-05-15T08:18:26.552Z,99680.91
2023-05-15T08:20:53.256Z,99678.59
2023-05-15T08:23:20.236Z,99680.50
2023-05-15T08:25:47.265Z,99668.84
2023-05-15T08:28:13.846Z,99667.81
2023-05-15T08:30:40.787Z,99682.09
2023-05-15T08:33:07.401Z,99673.56
2023-05-15T08:35:34.928Z,99670.53
2023-05-15T08:38:01.532Z,99667.59
2023-05-15T08:43:09.607Z,99662.16
2023-05-15T08:45:36.616Z,99663.78
2023-05-15T08:48:10.896Z,99661.84
2023-05-15T08:50:40.133Z,99661.09
2023-05-15T08:53:08.223Z,99660.78
2023-05-15T08:55:35.271Z,99656.75
2023-05-15T08:58:02.901Z,99651.06
2023-05-15T09:00:30.316Z,99647.19
2023-05-15T09:03:01.075Z,99650.13
2023-05-15T09:05:31.703Z,99652.69
2023-05-15T09:08:04.463Z,99651.63
2023-05-15T09:10:31.817Z,99650.00
2023-05-15T09:12:59.235Z,99652.56
2023-05-15T09:15:28.196Z,99652.50
2023-05-15T09:17:55.046Z,99656.09
2023-05-15T09:20:40.960Z,99662.28
2023-05-15T09:23:24.451Z,99670.06
2023-05-15T09:25:54.053Z,99656.19
2023-05-15T09:28:32.158Z,99653.00
2023-05-15T09:31:05.300Z,99657.22
2023-05-15T09:33:34.532Z,99652.22
2023-05-15T09:36:02.352Z,99650.75
2023-05-15T09:38:31.252Z,99641.59
2023-05-15T09:41:08.780Z,99654.56
2023-05-15T09:43:40.274Z,99649.38
2023-05-15T09:46:12.942Z,99644.25
2023-05-15T09:48:40.229Z,99646.81
2023-05-15T09:51:16.635Z,99639.72
2023-05-15T09:53:48.314Z,99643.63
2023-05-15T09:56:16.618Z,99640.88
2023-05-15T09:58:56.469Z,99638.97
2023-05-15T10:01:24.341Z,99644.81
2023-05-15T10:04:01.249Z,99652.78
2023-05-15T10:06:46.006Z,99652.53
2023-05-15T10:09:16.970Z,99653.28
2023-05-15T10:11:50.447Z,99648.41
2023-05-15T10:14:18.617Z,99646.88
2023-05-15T10:16:46.139Z,99646.69
2023-05-15T10:19:13.604Z,99644.41
2023-05-15T10:21:42.164Z,99650.13
2023-05-15T10:24:09.444Z,99650.16
2023-05-15T10:26:38.390Z,99644.97
2023-05-15T10:29:17.292Z,99644.84
2023-05-15T10:31:45.012Z,99642.97
2023-05-15T10:34:12.079Z,99634.75
2023-05-15T10:36:39.507Z,99632.19
2023-05-15T10:39:07.479Z,99636.72
2023-05-15T10:41:37.147Z,99640.00
2023-05-15T10:44:03.690Z,99629.03
2023-05-15T10:46:34.057Z,99629.56
2023-05-15T10:49:01.707Z,99630.75
2023-05-15T10:51:31.886Z,99627.63
2023-05-15T10:54:00.359Z,99623.34
2023-05-15T10:56:31.010Z,99620.63
2023-05-15T10:58:57.928Z,99623.19
2023-05-15T11:01:29.961Z,99616.75
2023-05-15T11:04:08.742Z,99620.59
2023-05-15T11:06:41.064Z,99618.78
2023-05-15T11:09:25.812Z,99617.59
2023-05-15T11:12:15.314Z,99624.16
2023-05-15T11:15:02.140Z,99621.72
2023-05-15T11:17:33.816Z,99623.97
2023-05-15T11:20:34.473Z,99617.66
2023-05-15T11:23:02.109Z,99619.19
2023-05-15T11:25:31.038Z,99615.44
2023-05-15T11:27:58.651Z,99616.25
2023-05-15T11:30:35.584Z,99606.88
2023-05-15T11:33:09.718Z,99598.34
2023-05-15T11:35:49.076Z,99591.25
2023-05-15T11:38:20.923Z,99581.16
2023-05-15T11:41:03.640Z,99576.63
2023-05-15T11:43:41.294Z,99578.53
2023-05-15T11:46:14.578Z,99572.34
2023-05-15T11:48:53.402Z,99590.31
2023-05-15T11:51:30.549Z,99587.09
2023-05-15T11:53:58.607Z,99589.59
2023-05-15T11:56:30.381Z,99583.94
2023-05-15T11:58:59.707Z,99584.06
2023-05-15T12:01:29.199Z,99574.94
2023-05-15T12:03:56.716Z,99570.81
2023-05-15T12:06:33.575Z,99582.75
2023-05-15T12:09:04.922Z,99579.22
2023-05-15T12:11:43.117Z,99574.97
2023-05-15T12:14:14.863Z,99575.69
2023-05-15T12:17:30.052Z,99584.84
2023-05-15T12:19:56.315Z,99599.50
2023-05-15T12:22:22.888Z,99590.25
2023-05-15T12:24:50.043Z,99586.22
2023-05-15T12:27:16.755Z,99579.09
2023-05-15T12:29:44.478Z,99579.66
2023-05-15T12:32:11.455Z,99576.78
2023-05-15T12:34:38.885Z,99584.78
2023-05-15T12:37:05.589Z,99577.91
2023-05-15T12:39:40.332Z,99576.50
2023-05-15T12:42:19.156Z,99577.31
2023-05-15T12:44:46.410Z,99571.41
2023-05-15T12:47:22.467Z,99573.47
2023-05-15T12:49:49.654Z,99575.44
2023-05-15T12:52:21.257Z,99568.56
2023-05-15T12:54:48.566Z,99569.06
2023-05-15T12:57:15.946Z,99576.03
2023-05-15T12:59:46.559Z,99576.13
2023-05-15T13:02:13.833Z,99588.50
2023-05-15T13:04:41.225Z,99587.72
2023-05-15T13:07:08.028Z,99596.34
2023-05-15T13:09:36.371Z,99578.38
2023-05-15T13:12:33.179Z,99577.91
2023-05-15T13:15:33.076Z,99586.97
2023-05-15T13:21:02.200Z,99595.94
2023-05-15T13:23:40.444Z,99591.97
2023-05-15T13:26:22.026Z,99591.56
2023-05-15T13:29:04.741Z,99589.75
2023-05-15T13:31:46.229Z,99594.09
2023-05-15T13:34:20.311Z,99579.03
2023-05-15T13:36:58.808Z,99589.19
2023-05-15T13:39:44.662Z,99587.69
2023-05-15T13:42:15.123Z,99590.63
2023-05-15T13:44:55.677Z,99586.09
2023-05-15T13:47:25.973Z,99593.06
2023-05-15T13:50:29.863Z,99586.97
2023-05-15T13:53:44.311Z,99589.66
2023-05-15T14:02:29.771Z,99584.97
2023-05-15T14:07:47.256Z,99580.72
2023-05-15T14:10:18.493Z,99584.69
2023-05-15T14:12:46.850Z,99598.53
2023-05-15T14:15:30.900Z,99596.72
2023-05-15T14:18:00.560Z,99592.28
2023-05-15T14:20:33.216Z,99591.44
2023-05-15T14:23:05.576Z,99589.22
2023-05-15T14:25:43.095Z,99582.22
2023-05-15T14:28:13.053Z,99581.94
2023-05-15T14:30:44.232Z,99593.00
2023-05-15T14:33:14.568Z,99588.03
2023-05-15T14:35:50.055Z,99589.31
2023-05-15T14:38:22.655Z,99577.59
2023-05-15T14:40:54.575Z,99583.50
2023-05-15T14:46:14.445Z,99584.72
2023-05-15T14:48:50.224Z,99583.25
2023-05-15T14:51:28.056Z,99584.44
2023-05-15T14:54:01.346Z,99582.28
2023-05-15T14:56:36.190Z,99580.09
2023-05-15T14:59:06.553Z,99590.19
2023-05-15T15:01:36.569Z,99586.03
2023-05-15T15:04:15.202Z,99589.13
2023-05-15T15:06:51.058Z,99590.72
2023-05-15T15:09:38.611Z,99586.81
2023-05-15T15:12:16.183Z,99592.59
2023-05-15T15:14:50.515Z,99585.88
2023-05-15T15:17:23.410Z,99582.44
2023-05-15T15:19:50.628Z,99577.81
2023-05-15T15:22:21.122Z,99574.28
2023-05-15T15:24:53.868Z,99576.13
2023-05-15T15:27:36.004Z,99567.63
2023-05-15T15:30:09.727Z,99560.78
2023-05-15T15:32:59.020Z,99557.81
2023-05-15T15:36:02.906Z,99560.88
2023-05-15T15:38:54.448Z,99557.56
2023-05-15T15:41:52.529Z,99554.75
2023-05-15T15:48:21.253Z,99557.56
2023-05-15T15:50:58.901Z,99558.41
2023-05-15T15:53:26.645Z,99562.47
2023-05-15T15:55:59.341Z,99556.09
2023-05-15T15:58:46.162Z,99561.72
2023-05-15T16:01:25.712Z,99553.72
2023-05-15T16:03:59.917Z,99560.97
2023-05-15T16:06:30.127Z,99575.94
2023-05-15T16:09:00.946Z,99580.69
2023-05-15T16:11:29.824Z,99578.66
2023-05-15T16:13:59.617Z,99573.75
2023-05-15T16:16:29.353Z,99571.03
2023-05-15T16:19:03.000Z,99573.47
2023-05-15T16:21:31.341Z,99568.56
2023-05-15T16:24:08.672Z,99572.50
2023-05-15T16:26:44.308Z,99568.31
2023-05-15T16:29:24.552Z,99567.06
2023-05-15T16:32:05.787Z,99564.13
2023-05-15T16:34:46.358Z,99573.19
2023-05-15T16:37:21.018Z,99566.47
2023-05-15T16:39:57.020Z,99564.88
2023-05-15T16:42:27.424Z,99566.38
2023-05-15T16:45:01.071Z,99562.69
2023-05-15T16:47:31.575Z,99570.53
2023-05-15T16:50:01.055Z,99571.00
2023-05-15T16:52:42.360Z,99573.72
2023-05-15T16:55:19.357Z,99567.31
2023-05-15T16:57:59.415Z,99571.13
2023-05-15T17:00:43.459Z,99579.00
2023-05-15T17:03:23.696Z,99573.75
2023-05-15T17:05:57.727Z,99579.88
2023-05-15T17:08:35.022Z,99576.47
2023-05-15T17:11:04.799Z,99578.16
2023-05-15T17:13:50.724Z,99576.47
2023-05-15T17:16:29.421Z,99579.25
2023-05-15T17:19:22.017Z,99576.72
2023-05-15T17:21:49.207Z,99582.94
2023-05-15T17:24:16.633Z,99580.38
2023-05-15T17:27:00.930Z,99579.16
2023-05-15T17:29:38.263Z,99579.63
2023-05-15T17:32:09.763Z,99585.28
2023-05-15T17:34:40.566Z,99591.16
2023-05-15T17:37:09.042Z,99579.75
2023-05-15T17:39:37.268Z,99591.41
2023-05-15T17:42:04.580Z,99599.00
2023-05-15T17:44:31.307Z,99603.63
2023-05-15T17:46:58.880Z,99607.03
2023-05-15T17:49:26.255Z,99611.94
2023-05-15T17:51:54.201Z,99620.72
2023-05-15T17:54:20.860Z,99622.91
2023-05-15T17:56:48.757Z,99635.00
2023-05-15T17:59:16.013Z,99633.66
2023-05-15T18:01:43.398Z,99626.00
2023-05-15T18:04:10.273Z,99625.63
2023-05-15T18:06:38.067Z,99620.19
2023-05-15T18:09:05.060Z,99631.31
2023-05-15T18:11:32.686Z,99644.13
2023-05-15T18:13:59.451Z,99642.53
2023-05-15T18:16:26.980Z,99641.28
2023-05-15T18:18:53.840Z,99653.16
2023-05-15T18:21:20.757Z,99655.19
2023-05-15T18:23:47.945Z,99652.72
2023-05-15T18:26:14.583Z,99654.03
2023-05-15T18:28:41.703Z,99651.69
2023-05-15T18:31:08.561Z,99655.78
2023-05-15T18:33:35.913Z,99664.53
2023-05-15T18:36:03.683Z,99658.84
2023-05-15T18:38:32.188Z,99672.69
2023-05-15T18:40:58.871Z,99685.22
2023-05-15T18:43:26.242Z,99695.22
2023-05-15T18:45:54.100Z,99717.03
2023-05-15T18:48:21.094Z,99723.34
2023-05-15T18:50:50.405Z,99722.00
2023-05-15T18:53:17.534Z,99721.69
2023-05-15T18:55:44.153Z,99728.53
2023-05-15T18:58:11.413Z,99731.44
2023-05-15T19:00:39.267Z,99737.66
2023-05-15T19:03:08.977Z,99737.03
2023-05-15T19:05:35.756Z,99731.34
2023-05-15T19:08:03.927Z,99736.47
2023-05-15T19:10:30.726Z,99745.63
2023-05-15T19:12:58.615Z,99744.81
2023-05-15T19:15:25.968Z,99756.59
2023-05-15T19:17:53.246Z,99740.66
2023-05-15T19:20:20.764Z,99742.91
2023-05-15T19:22:48.045Z,99742.06
2023-05-15T19:25:14.792Z,99743.84
2023-05-15T19:27:42.147Z,99748.44
2023-05-15T19:30:10.035Z,99761.88
2023-05-15T19:32:37.863Z,99758.25
2023-05-15T19:35:05.336Z,99776.91
2023-05-15T19:37:32.531Z,99777.75
2023-05-15T19:39:59.246Z,99786.06
2023-05-15T19:42:26.739Z,99777.16
2023-05-15T19:44:53.436Z,99793.91
2023-05-15T19:47:20.913Z,99809.00
2023-05-15T19:49:47.576Z,99807.28
2023-05-15T19:52:16.484Z,99805.53
2023-05-15T19:54:43.349Z,99810.88
2023-05-15T19:57:10.689Z,99802.97
2023-05-15T19:59:37.320Z,99810.69
2023-05-15T20:02:09.600Z,99812.44
2023-05-15T20:04:37.981Z,99814.34
2023-05-15T20:07:06.885Z,99818.84
2023-05-15T20:09:34.980Z,99823.31
2023-05-15T20:12:06.972Z,99824.34
2023-05-15T20:14:34.497Z,99827.28
2023-05-15T20:17:02.739Z,99823.97
2023-05-15T20:19:33.044Z,99822.31
2023-05-15T20:22:01.095Z,99827.00
2023-05-15T20:24:28.291Z,99830.53
2023-05-15T20:26:56.609Z,99836.91
2023-05-15T20:29:26.097Z,99849.47
